createdAt,value
2023-05-06T00:00:45.583Z,1010.45
2023-05-06T00:01:45.560Z,1010.41
2023-05-06T00:02:45.585Z,1010.42
2023-05-06T00:03:45.774Z,1010.45
2023-05-06T00:04:45.597Z,1010.48
2023-05-06T00:05:45.537Z,1010.47
2023-05-06T00:06:45.512Z,1010.53
2023-05-06T00:07:45.501Z,1010.49
2023-05-06T00:08:45.481Z,1010.51
2023-05-06T00:09:45.471Z,1010.50
2023-05-06T00:10:45.489Z,1010.47
2023-05-06T00:11:45.449Z,1010.48
2023-05-06T00:12:45.503Z,1010.50
2023-05-06T00:13:45.524Z,1010.42
2023-05-06T00:14:45.412Z,1010.45
2023-05-06T00:15:45.411Z,1010.41
2023-05-06T00:16:45.457Z,1010.43
2023-05-06T00:17:45.467Z,1010.39
2023-05-06T00:18:45.379Z,1010.47
2023-05-06T00:19:45.375Z,1010.39
2023-05-06T00:20:45.345Z,1010.30
2023-05-06T00:21:45.343Z,1010.32
2023-05-06T00:22:45.343Z,1010.34
2023-05-06T00:23:45.320Z,1010.31
2023-05-06T00:24:45.302Z,1010.34
2023-05-06T00:25:45.303Z,1010.29
2023-05-06T00:26:45.294Z,1010.27
2023-05-06T00:27:45.275Z,1010.30
2023-05-06T00:28:45.261Z,1010.30
2023-05-06T00:29:45.269Z,1010.30
2023-05-06T00:30:45.235Z,1010.25
2023-05-06T00:31:45.378Z,1010.23
2023-05-06T00:32:45.284Z,1010.23
2023-05-06T00:33:45.219Z,1010.20
2023-05-06T00:34:45.190Z,1010.27
2023-05-06T00:35:45.196Z,1010.24
2023-05-06T00:36:45.170Z,1010.27
2023-05-06T00:37:45.156Z,1010.25
2023-05-06T00:38:45.179Z,1010.21
2023-05-06T00:39:45.136Z,1010.22
2023-05-06T00:40:45.122Z,1010.18
2023-05-06T00:41:45.136Z,1010.20
2023-05-06T00:42:45.105Z,1010.16
2023-05-06T00:43:45.124Z,1010.22
2023-05-06T00:44:45.088Z,1010.21
2023-05-06T00:45:45.277Z,1010.21
2023-05-06T00:46:45.074Z,1010.17
2023-05-06T00:47:45.123Z,1010.13
2023-05-06T00:48:45.058Z,1010.23
2023-05-06T00:49:45.031Z,1010.17
2023-05-06T00:50:45.009Z,1010.20
2023-05-06T00:51:45.004Z,1010.19
2023-05-06T00:52:45.003Z,1010.17
2023-05-06T00:53:44.992Z,1010.19
2023-05-06T00:54:44.974Z,1010.15
2023-05-06T00:55:44.956Z,1010.18
2023-05-06T00:56:44.953Z,1010.11
2023-05-06T00:57:44.948Z,1010.10
2023-05-06T00:58:44.948Z,1010.12
2023-05-06T00:59:44.912Z,1010.13
2023-05-06T01:00:44.943Z,1010.13
2023-05-06T01:01:44.997Z,1010.15
2023-05-06T01:02:47.536Z,1010.11
2023-05-06T01:03:45.073Z,1010.14
2023-05-06T01:04:44.903Z,1010.17
2023-05-06T01:05:44.851Z,1010.14
2023-05-06T01:06:44.945Z,1010.15
2023-05-06T01:07:44.823Z,1010.18
2023-05-06T01:08:44.833Z,1010.14
2023-05-06T01:09:44.806Z,1010.16
2023-05-06T01:10:44.809Z,1010.18
2023-05-06T01:11:44.793Z,1010.15
2023-05-06T01:12:44.789Z,1010.19
2023-05-06T01:13:44.778Z,1010.11
2023-05-06T01:14:44.764Z,1010.06
2023-05-06T01:15:44.764Z,1010.03
2023-05-06T01:16:44.758Z,1010.04
2023-05-06T01:17:44.862Z,1010.06
2023-05-06T01:18:44.730Z,1010.00
2023-05-06T01:19:44.695Z,1010.00
2023-05-06T01:20:44.681Z,1010.04
2023-05-06T01:21:44.675Z,1010.03
2023-05-06T01:22:44.662Z,1009.99
2023-05-06T01:23:44.654Z,1010.00
2023-05-06T01:24:44.652Z,1010.05
2023-05-06T01:25:44.643Z,1009.99
2023-05-06T01:26:44.638Z,1009.99
2023-05-06T01:27:44.603Z,1010.00
2023-05-06T01:28:44.602Z,1010.04
2023-05-06T01:29:44.605Z,1010.02
2023-05-06T01:30:44.603Z,1010.03
2023-05-06T01:31:44.560Z,1010.05
2023-05-06T01:32:44.601Z,1010.03
2023-05-06T01:33:44.637Z,1010.03
2023-05-06T01:34:44.560Z,1010.04
2023-05-06T01:35:44.518Z,1010.02
2023-05-06T01:36:44.504Z,1009.98
2023-05-06T01:37:44.495Z,1010.09
2023-05-06T01:38:44.495Z,1010.06
2023-05-06T01:39:44.491Z,1010.09
2023-05-06T01:40:44.481Z,1010.06
2023-05-06T01:41:44.448Z,1010.03
2023-05-06T01:42:44.434Z,1010.04
2023-05-06T01:43:44.440Z,1010.04
2023-05-06T01:44:44.415Z,1010.01
2023-05-06T01:45:44.400Z,1010.11
2023-05-06T01:46:44.503Z,1010.07
2023-05-06T01:47:44.408Z,1010.19
2023-05-06T01:48:44.385Z,1010.17
2023-05-06T01:49:44.456Z,1010.21
2023-05-06T01:50:44.377Z,1010.28
2023-05-06T01:51:44.339Z,1010.27
2023-05-06T01:52:44.326Z,1010.21
2023-05-06T01:53:44.312Z,1010.25
2023-05-06T01:54:44.311Z,1010.22
2023-05-06T01:55:44.313Z,1010.22
2023-05-06T01:56:44.273Z,1010.13
2023-05-06T01:57:44.276Z,1010.16
2023-05-06T01:58:44.252Z,1010.22
2023-05-06T01:59:44.272Z,1010.21
2023-05-06T02:00:44.240Z,1010.25
2023-05-06T02:01:44.243Z,1010.23
2023-05-06T02:02:44.295Z,1010.22
2023-05-06T02:03:44.327Z,1010.22
2023-05-06T02:04:44.204Z,1010.25
2023-05-06T02:05:44.269Z,1010.23
2023-05-06T02:06:44.183Z,1010.21
2023-05-06T02:07:44.160Z,1010.27
2023-05-06T02:08:44.236Z,1010.22
2023-05-06T02:09:44.140Z,1010.25
2023-05-06T02:10:44.141Z,1010.30
2023-05-06T02:11:44.113Z,1010.21
2023-05-06T02:12:44.171Z,1010.22
2023-05-06T02:13:44.095Z,1010.30
2023-05-06T02:14:44.079Z,1010.29
2023-05-06T02:15:44.084Z,1010.31
2023-05-06T02:16:44.079Z,1010.27
2023-05-06T02:17:44.082Z,1010.33
2023-05-06T02:18:44.035Z,1010.33
2023-05-06T02:19:44.022Z,1010.31
2023-05-06T02:20:44.006Z,1010.36
2023-05-06T02:21:44.112Z,1010.30
2023-05-06T02:22:43.987Z,1010.31
2023-05-06T02:23:44.005Z,1010.36
2023-05-06T02:24:43.985Z,1010.34
2023-05-06T02:25:43.979Z,1010.33
2023-05-06T02:26:43.948Z,1010.33
2023-05-06T02:27:43.931Z,1010.30
2023-05-06T02:28:43.933Z,1010.27
2023-05-06T02:29:43.926Z,1010.30
2023-05-06T02:30:43.913Z,1010.28
2023-05-06T02:31:43.941Z,1010.25
2023-05-06T02:32:43.889Z,1010.30
2023-05-06T02:33:43.870Z,1010.30
2023-05-06T02:34:43.860Z,1010.33
2023-05-06T02:35:43.868Z,1010.35
2023-05-06T02:36:43.833Z,1010.32
2023-05-06T02:37:43.844Z,1010.32
2023-05-06T02:38:43.812Z,1010.43
2023-05-06T02:39:43.807Z,1010.32
2023-05-06T02:40:43.818Z,1010.29
2023-05-06T02:41:43.779Z,1010.28
2023-05-06T02:42:43.801Z,1010.24
2023-05-06T02:43:43.764Z,1010.23
2023-05-06T02:44:43.744Z,1010.26
2023-05-06T02:45:43.781Z,1010.26
2023-05-06T02:46:43.755Z,1010.15
2023-05-06T02:47:43.744Z,1010.23
2023-05-06T02:48:43.709Z,1010.24
2023-05-06T02:49:43.686Z,1010.18
2023-05-06T02:50:43.708Z,1010.19
2023-05-06T02:51:43.696Z,1010.19
2023-05-06T02:52:43.676Z,1010.17
2023-05-06T02:53:43.734Z,1010.17
2023-05-06T02:54:43.634Z,1010.14
2023-05-06T02:55:43.658Z,1010.18
2023-05-06T02:56:43.644Z,1010.19
2023-05-06T02:57:43.598Z,1010.16
2023-05-06T02:58:43.605Z,1010.12
2023-05-06T02:59:43.623Z,1010.20
2023-05-06T03:00:43.626Z,1010.13
2023-05-06T03:01:43.570Z,1010.17
2023-05-06T03:02:43.578Z,1010.19
2023-05-06T03:03:43.546Z,1010.24
2023-05-06T03:04:43.526Z,1010.23
2023-05-06T03:05:43.521Z,1010.21
2023-05-06T03:06:43.570Z,1010.20
2023-05-06T03:07:43.491Z,1010.22
2023-05-06T03:08:43.483Z,1010.25
2023-05-06T03:09:43.686Z,1010.26
2023-05-06T03:10:43.453Z,1010.23
2023-05-06T03:11:43.457Z,1010.24
2023-05-06T03:12:43.493Z,1010.22
2023-05-06T03:13:43.432Z,1010.22
2023-05-06T03:14:43.420Z,1010.29
2023-05-06T03:15:43.399Z,1010.22
2023-05-06T03:16:43.488Z,1010.25
2023-05-06T03:17:43.418Z,1010.28
2023-05-06T03:18:43.362Z,1010.33
2023-05-06T03:19:43.349Z,1010.34
2023-05-06T03:20:43.359Z,1010.27
2023-05-06T03:21:43.366Z,1010.33
2023-05-06T03:22:43.366Z,1010.36
2023-05-06T03:23:43.316Z,1010.37
2023-05-06T03:24:43.302Z,1010.38
2023-05-06T03:25:43.389Z,1010.35
2023-05-06T03:26:43.280Z,1010.34
2023-05-06T03:27:43.258Z,1010.34
2023-05-06T03:28:43.257Z,1010.31
2023-05-06T03:29:43.262Z,1010.32
2023-05-06T03:30:43.256Z,1010.34
2023-05-06T03:31:43.260Z,1010.33
2023-05-06T03:32:43.264Z,1010.33
2023-05-06T03:33:43.196Z,1010.28
2023-05-06T03:34:43.236Z,1010.29
2023-05-06T03:35:43.186Z,1010.29
2023-05-06T03:36:43.168Z,1010.25
2023-05-06T03:37:43.157Z,1010.24
2023-05-06T03:38:43.150Z,1010.26
2023-05-06T03:39:43.148Z,1010.25
2023-05-06T03:40:43.130Z,1010.25
2023-05-06T03:41:43.203Z,1010.26
2023-05-06T03:42:43.173Z,1010.26
2023-05-06T03:43:43.167Z,1010.20
2023-05-06T03:44:43.199Z,1010.22
2023-05-06T03:45:43.058Z,1010.18
2023-05-06T03:46:43.244Z,1010.16
2023-05-06T03:47:43.062Z,1010.14
2023-05-06T03:48:43.044Z,1010.15
2023-05-06T03:49:43.035Z,1010.16
2023-05-06T03:50:43.006Z,1010.11
2023-05-06T03:51:42.996Z,1010.06
2023-05-06T03:52:42.999Z,1010.06
2023-05-06T03:53:42.988Z,1010.04
2023-05-06T03:54:42.984Z,1010.13
2023-05-06T03:55:42.958Z,1010.06
2023-05-06T03:56:42.941Z,1010.08
2023-05-06T03:57:43.021Z,1010.07
2023-05-06T03:58:42.948Z,1010.16
2023-05-06T03:59:42.945Z,1010.10
2023-05-06T04:00:42.907Z,1010.10
2023-05-06T04:01:42.918Z,1010.13
2023-05-06T04:02:42.961Z,1010.09
2023-05-06T04:03:42.933Z,1010.15
2023-05-06T04:04:42.863Z,1010.11
2023-05-06T04:05:42.846Z,1010.17
2023-05-06T04:06:42.831Z,1010.13
2023-05-06T04:07:42.816Z,1010.10
2023-05-06T04:08:42.812Z,1010.11
2023-05-06T04:09:42.816Z,1010.13
2023-05-06T04:10:42.801Z,1010.06
2023-05-06T04:11:42.770Z,1010.11
2023-05-06T04:12:42.827Z,1010.06
2023-05-06T04:13:42.848Z,1010.15
2023-05-06T04:14:42.762Z,1010.11
2023-05-06T04:15:42.733Z,1010.14
2023-05-06T04:16:42.806Z,1010.21
2023-05-06T04:17:42.726Z,1010.16
2023-05-06T04:18:42.693Z,1010.21
2023-05-06T04:19:42.677Z,1010.10
2023-05-06T04:20:42.692Z,1010.18
2023-05-06T04:21:42.685Z,1010.20
2023-05-06T04:22:42.653Z,1010.26
2023-05-06T04:23:42.644Z,1010.27
2023-05-06T04:24:42.627Z,1010.31
2023-05-06T04:25:42.633Z,1010.30
2023-05-06T04:26:42.616Z,1010.31
2023-05-06T04:27:42.597Z,1010.39
2023-05-06T04:28:42.585Z,1010.31
2023-05-06T04:29:42.734Z,1010.40
2023-05-06T04:30:42.596Z,1010.37
2023-05-06T04:31:42.623Z,1010.40
2023-05-06T04:32:42.584Z,1010.41
2023-05-06T04:33:42.531Z,1010.45
2023-05-06T04:34:42.527Z,1010.40
2023-05-06T04:35:42.504Z,1010.37
2023-05-06T04:36:42.515Z,1010.33
2023-05-06T04:37:42.495Z,1010.35
2023-05-06T04:38:42.478Z,1010.31
2023-05-06T04:39:42.466Z,1010.33
2023-05-06T04:40:42.456Z,1010.29
2023-05-06T04:41:42.452Z,1010.31
2023-05-06T04:42:42.459Z,1010.29
2023-05-06T04:43:42.427Z,1010.35
2023-05-06T04:44:42.408Z,1010.31
2023-05-06T04:45:42.471Z,1010.35
2023-05-06T04:46:42.386Z,1010.40
2023-05-06T04:47:42.522Z,1010.43
2023-05-06T04:48:42.375Z,1010.36
2023-05-06T04:49:42.357Z,1010.43
2023-05-06T04:50:42.359Z,1010.33
2023-05-06T04:51:42.332Z,1010.36
2023-05-06T04:52:42.333Z,1010.36
2023-05-06T04:53:42.314Z,1010.38
2023-05-06T04:54:44.212Z,1010.33
2023-05-06T04:55:42.284Z,1010.38
2023-05-06T04:56:42.278Z,1010.37
2023-05-06T04:57:42.260Z,1010.38
2023-05-06T04:58:42.295Z,1010.36
2023-05-06T04:59:42.237Z,1010.35
2023-05-06T05:00:42.234Z,1010.42
2023-05-06T05:01:42.399Z,1010.40
2023-05-06T05:02:42.297Z,1010.38
2023-05-06T05:03:42.262Z,1010.44
2023-05-06T05:04:42.187Z,1010.49
2023-05-06T05:05:42.196Z,1010.50
2023-05-06T05:06:42.172Z,1010.48
2023-05-06T05:07:42.156Z,1010.55
2023-05-06T05:08:42.142Z,1010.64
2023-05-06T05:09:42.142Z,1010.58
2023-05-06T05:10:42.137Z,1010.58
2023-05-06T05:11:42.108Z,1010.65
2023-05-06T05:12:42.143Z,1010.60
2023-05-06T05:13:42.085Z,1010.64
2023-05-06T05:14:42.073Z,1010.64
2023-05-06T05:15:42.085Z,1010.63
2023-05-06T05:16:42.083Z,1010.61
2023-05-06T05:17:42.139Z,1010.60
2023-05-06T05:18:42.028Z,1010.61
2023-05-06T05:19:42.044Z,1010.61
2023-05-06T05:20:42.036Z,1010.60
2023-05-06T05:21:41.993Z,1010.53
2023-05-06T05:22:41.983Z,1010.55
2023-05-06T05:23:41.986Z,1010.55
2023-05-06T05:24:41.965Z,1010.49
2023-05-06T05:25:41.951Z,1010.49
2023-05-06T05:26:41.966Z,1010.52
2023-05-06T05:27:41.934Z,1010.56
2023-05-06T05:28:41.918Z,1010.52
2023-05-06T05:29:41.903Z,1010.56
2023-05-06T05:30:41.907Z,1010.52
2023-05-06T05:31:42.032Z,1010.53
2023-05-06T05:32:41.886Z,1010.57
2023-05-06T05:33:42.060Z,1010.56
2023-05-06T05:34:41.857Z,1010.57
2023-05-06T05:35:41.878Z,1010.56
2023-05-06T05:36:41.828Z,1010.62
2023-05-06T05:37:41.817Z,1010.61
2023-05-06T05:38:41.818Z,1010.57
2023-05-06T05:39:41.809Z,1010.64
2023-05-06T05:40:41.798Z,1010.59
2023-05-06T05:41:41.810Z,1010.60
2023-05-06T05:42:41.762Z,1010.61
2023-05-06T05:43:41.749Z,1010.61
2023-05-06T05:44:41.740Z,1010.53
2023-05-06T05:45:41.728Z,1010.53
2023-05-06T05:46:41.824Z,1010.47
2023-05-06T05:47:41.743Z,1010.50
2023-05-06T05:48:41.695Z,1010.50
2023-05-06T05:49:41.712Z,1010.53
2023-05-06T05:50:41.672Z,1010.60
2023-05-06T05:51:41.686Z,1010.58
2023-05-06T05:52:41.708Z,1010.59
2023-05-06T05:53:41.648Z,1010.61
2023-05-06T05:54:41.632Z,1010.61
2023-05-06T05:55:41.614Z,1010.60
2023-05-06T05:56:41.621Z,1010.56
2023-05-06T05:57:41.588Z,1010.56
2023-05-06T05:58:41.582Z,1010.59
2023-05-06T05:59:41.569Z,1010.54
2023-05-06T06:00:41.560Z,1010.56
2023-05-06T06:01:41.557Z,1010.55
2023-05-06T06:02:41.624Z,1010.55
2023-05-06T06:03:41.765Z,1010.58
2023-05-06T06:04:41.548Z,1010.50
2023-05-06T06:05:41.613Z,1010.62
2023-05-06T06:06:41.502Z,1010.54
2023-05-06T06:07:41.519Z,1010.56
2023-05-06T06:08:41.484Z,1010.67
2023-05-06T06:09:41.450Z,1010.59
2023-05-06T06:10:41.446Z,1010.58
2023-05-06T06:11:41.428Z,1010.62
2023-05-06T06:12:41.497Z,1010.61
2023-05-06T06:13:41.413Z,1010.62
2023-05-06T06:14:41.448Z,1010.69
2023-05-06T06:15:41.389Z,1010.73
2023-05-06T06:16:41.431Z,1010.70
2023-05-06T06:17:41.431Z,1010.72
2023-05-06T06:18:41.379Z,1010.76
2023-05-06T06:19:41.348Z,1010.74
2023-05-06T06:20:41.339Z,1010.75
2023-05-06T06:21:41.590Z,1010.75
2023-05-06T06:22:41.318Z,1010.82
2023-05-06T06:23:41.317Z,1010.79
2023-05-06T06:24:41.304Z,1010.76
2023-05-06T06:25:41.281Z,1010.76
2023-05-06T06:26:41.275Z,1010.74
2023-05-06T06:27:41.252Z,1010.80
2023-05-06T06:28:41.247Z,1010.73
2023-05-06T06:29:41.231Z,1010.81
2023-05-06T06:30:41.241Z,1010.81
2023-05-06T06:31:41.303Z,1010.82
2023-05-06T06:32:41.226Z,1010.85
2023-05-06T06:33:41.195Z,1010.88
2023-05-06T06:34:41.178Z,1010.88
2023-05-06T06:35:41.178Z,1010.90
2023-05-06T06:36:41.166Z,1010.86
2023-05-06T06:37:41.239Z,1010.86
2023-05-06T06:38:41.150Z,1010.88
2023-05-06T06:39:41.126Z,1010.89
2023-05-06T06:40:41.129Z,1010.88
2023-05-06T06:41:41.101Z,1010.92
2023-05-06T06:42:41.117Z,1010.97
2023-05-06T06:43:41.111Z,1010.99
2023-05-06T06:44:41.073Z,1010.91
2023-05-06T06:45:41.083Z,1010.99
2023-05-06T06:46:41.080Z,1011.02
2023-05-06T06:47:41.053Z,1011.02
2023-05-06T06:48:41.042Z,1010.98
2023-05-06T06:49:41.010Z,1011.05
2023-05-06T06:50:41.034Z,1011.02
2023-05-06T06:51:40.993Z,1011.02
2023-05-06T06:52:40.982Z,1011.02
2023-05-06T06:53:40.992Z,1010.98
2023-05-06T06:54:40.984Z,1010.98
2023-05-06T06:55:40.962Z,1010.99
2023-05-06T06:56:40.941Z,1010.95
2023-05-06T06:57:40.929Z,1010.96
2023-05-06T06:58:40.915Z,1011.01
2023-05-06T06:59:40.920Z,1011.00
2023-05-06T07:00:40.903Z,1010.95
2023-05-06T07:01:40.905Z,1010.97
2023-05-06T07:02:40.981Z,1010.96
2023-05-06T07:03:40.881Z,1010.95
2023-05-06T07:04:40.929Z,1011.01
2023-05-06T07:05:40.860Z,1010.93
2023-05-06T07:06:40.824Z,1010.95
2023-05-06T07:07:40.817Z,1011.00
2023-05-06T07:08:40.807Z,1011.02
2023-05-06T07:09:40.908Z,1010.99
2023-05-06T07:10:40.781Z,1011.03
2023-05-06T07:11:40.802Z,1011.01
2023-05-06T07:12:40.785Z,1011.02
2023-05-06T07:13:40.754Z,1010.96
2023-05-06T07:14:40.745Z,1011.00
2023-05-06T07:15:40.731Z,1010.97
2023-05-06T07:16:40.761Z,1011.03
2023-05-06T07:17:40.759Z,1010.94
2023-05-06T07:18:40.690Z,1010.97
2023-05-06T07:19:40.694Z,1011.01
2023-05-06T07:20:40.668Z,1011.05
2023-05-06T07:21:40.667Z,1011.02
2023-05-06T07:22:40.659Z,1011.05
2023-05-06T07:23:40.633Z,1011.04
2023-05-06T07:24:40.624Z,1010.97
2023-05-06T07:25:40.707Z,1011.05
2023-05-06T07:26:40.602Z,1011.09
2023-05-06T07:27:40.624Z,1011.09
2023-05-06T07:28:40.578Z,1011.06
2023-05-06T07:29:40.564Z,1011.01
2023-05-06T07:30:40.557Z,1011.02
2023-05-06T07:31:40.547Z,1011.06
2023-05-06T07:32:40.585Z,1011.04
2023-05-06T07:33:40.562Z,1011.05
2023-05-06T07:34:40.516Z,1011.08
2023-05-06T07:35:40.504Z,1011.04
2023-05-06T07:36:40.594Z,1011.11
2023-05-06T07:37:40.477Z,1011.13
2023-05-06T07:38:40.487Z,1011.09
2023-05-06T07:39:40.475Z,1011.15
2023-05-06T07:40:40.450Z,1011.11
2023-05-06T07:41:40.461Z,1011.08
2023-05-06T07:42:42.773Z,1011.08
2023-05-06T07:43:40.423Z,1011.10
2023-05-06T07:44:40.435Z,1011.17
2023-05-06T07:45:40.395Z,1011.08
2023-05-06T07:46:40.459Z,1011.15
2023-05-06T07:47:40.551Z,1011.08
2023-05-06T07:48:40.359Z,1011.17
2023-05-06T07:49:40.356Z,1011.10
2023-05-06T07:50:40.336Z,1011.03
2023-05-06T07:51:40.336Z,1011.09
2023-05-06T07:52:40.333Z,1011.05
2023-05-06T07:53:40.330Z,1011.06
2023-05-06T07:54:40.293Z,1011.09
2023-05-06T07:55:40.278Z,1011.13
2023-05-06T07:56:40.267Z,1011.12
2023-05-06T07:57:40.457Z,1011.13
2023-05-06T07:58:40.273Z,1011.12
2023-05-06T07:59:40.237Z,1011.15
2023-05-06T08:00:40.227Z,1011.13
2023-05-06T08:01:40.217Z,1011.13
2023-05-06T08:02:40.289Z,1011.11
2023-05-06T08:03:40.446Z,1011.14
2023-05-06T08:04:40.201Z,1011.08
2023-05-06T08:05:40.191Z,1011.11
2023-05-06T08:06:40.161Z,1011.13
2023-05-06T08:07:40.150Z,1011.14
2023-05-06T08:08:40.163Z,1011.18
2023-05-06T08:09:40.136Z,1011.20
2023-05-06T08:10:40.117Z,1011.21
2023-05-06T08:11:40.106Z,1011.18
2023-05-06T08:12:40.117Z,1011.21
2023-05-06T08:13:40.195Z,1011.27
2023-05-06T08:14:40.072Z,1011.28
2023-05-06T08:15:40.071Z,1011.21
2023-05-06T08:16:40.151Z,1011.27
2023-05-06T08:17:40.104Z,1011.21
2023-05-06T08:18:40.050Z,1011.29
2023-05-06T08:19:40.034Z,1011.29
2023-05-06T08:20:40.004Z,1011.27
2023-05-06T08:21:40.026Z,1011.30
2023-05-06T08:22:39.982Z,1011.25
2023-05-06T08:23:39.977Z,1011.30
2023-05-06T08:24:39.983Z,1011.30
2023-05-06T08:25:39.952Z,1011.30
2023-05-06T08:26:39.944Z,1011.40
2023-05-06T08:27:39.947Z,1011.30
2023-05-06T08:28:39.923Z,1011.26
2023-05-06T08:29:40.034Z,1011.31
2023-05-06T08:30:39.897Z,1011.31
2023-05-06T08:31:39.913Z,1011.29
2023-05-06T08:32:39.915Z,1011.30
2023-05-06T08:33:39.874Z,1011.32
2023-05-06T08:34:39.871Z,1011.33
2023-05-06T08:35:39.860Z,1011.27
2023-05-06T08:36:39.832Z,1011.36
2023-05-06T08:37:39.819Z,1011.37
2023-05-06T08:38:39.806Z,1011.33
2023-05-06T08:39:39.796Z,1011.34
2023-05-06T08:40:39.821Z,1011.36
2023-05-06T08:41:39.777Z,1011.31
2023-05-06T08:42:39.767Z,1011.35
2023-05-06T08:43:39.773Z,1011.30
2023-05-06T08:44:39.763Z,1011.34
2023-05-06T08:45:39.965Z,1011.41
2023-05-06T08:46:39.761Z,1011.36
2023-05-06T08:47:39.792Z,1011.34
2023-05-06T08:48:39.704Z,1011.35
2023-05-06T08:49:39.687Z,1011.35
2023-05-06T08:50:39.686Z,1011.35
2023-05-06T08:51:39.664Z,1011.37
2023-05-06T08:52:39.658Z,1011.33
2023-05-06T08:53:39.642Z,1011.32
2023-05-06T08:54:39.656Z,1011.29
2023-05-06T08:55:39.645Z,1011.30
2023-05-06T08:56:39.612Z,1011.42
2023-05-06T08:57:39.593Z,1011.29
2023-05-06T08:58:39.582Z,1011.34
2023-05-06T08:59:39.577Z,1011.41
2023-05-06T09:00:39.567Z,1011.34
2023-05-06T09:01:39.849Z,1011.38
2023-05-06T09:02:42.134Z,1011.38
2023-05-06T09:03:39.567Z,1011.43
2023-05-06T09:04:39.523Z,1011.29
2023-05-06T09:05:39.509Z,1011.38
2023-05-06T09:06:39.512Z,1011.35
2023-05-06T09:07:39.501Z,1011.36
2023-05-06T09:08:39.492Z,1011.33
2023-05-06T09:09:39.464Z,1011.35
2023-05-06T09:10:39.453Z,1011.31
2023-05-06T09:11:39.443Z,1011.31
2023-05-06T09:12:39.503Z,1011.29
2023-05-06T09:13:39.421Z,1011.29
2023-05-06T09:14:39.416Z,1011.23
2023-05-06T09:15:39.407Z,1011.28
2023-05-06T09:16:39.413Z,1011.32
2023-05-06T09:17:39.485Z,1011.37
2023-05-06T09:18:39.365Z,1011.31
2023-05-06T09:19:39.353Z,1011.34
2023-05-06T09:20:39.356Z,1011.31
2023-05-06T09:21:39.340Z,1011.26
2023-05-06T09:22:39.331Z,1011.34
2023-05-06T09:23:39.338Z,1011.30
2023-05-06T09:24:39.300Z,1011.31
2023-05-06T09:25:39.301Z,1011.27
2023-05-06T09:26:39.285Z,1011.30
2023-05-06T09:27:39.298Z,1011.34
2023-05-06T09:28:39.262Z,1011.25
2023-05-06T09:29:39.247Z,1011.28
2023-05-06T09:30:39.279Z,1011.31
2023-05-06T09:31:39.224Z,1011.34
2023-05-06T09:32:40.179Z,1011.22
2023-05-06T09:33:39.222Z,1011.33
2023-05-06T09:34:39.196Z,1011.33
2023-05-06T09:35:39.196Z,1011.33
2023-05-06T09:36:39.167Z,1011.27
2023-05-06T09:37:39.184Z,1011.30
2023-05-06T09:38:39.187Z,1011.24
2023-05-06T09:39:39.138Z,1011.21
2023-05-06T09:40:39.177Z,1011.18
2023-05-06T09:41:39.113Z,1011.17
2023-05-06T09:42:39.099Z,1011.20
2023-05-06T09:43:39.105Z,1011.20
2023-05-06T09:44:39.078Z,1011.17
2023-05-06T09:45:39.093Z,1011.16
2023-05-06T09:46:39.150Z,1011.11
2023-05-06T09:47:39.091Z,1011.23
2023-05-06T09:48:39.052Z,1011.17
2023-05-06T09:49:39.125Z,1011.19
2023-05-06T09:50:39.024Z,1011.19
2023-05-06T09:51:39.005Z,1011.22
2023-05-06T09:52:39.010Z,1011.18
2023-05-06T09:53:38.989Z,1011.17
2023-05-06T09:54:38.986Z,1011.18
2023-05-06T09:55:38.960Z,1011.15
2023-05-06T09:56:38.949Z,1011.13
2023-05-06T09:57:38.939Z,1011.15
2023-05-06T09:58:38.945Z,1011.04
2023-05-06T09:59:38.962Z,1011.14
2023-05-06T10:00:38.904Z,1011.11
2023-05-06T10:01:38.940Z,1011.10
2023-05-06T10:02:39.144Z,1011.10
2023-05-06T10:03:38.958Z,1011.05
2023-05-06T10:04:39.070Z,1011.05
2023-05-06T10:05:38.974Z,1011.14
2023-05-06T10:06:38.837Z,1011.03
2023-05-06T10:07:38.829Z,1011.05
2023-05-06T10:08:38.814Z,1011.10
2023-05-06T10:09:38.822Z,1011.12
2023-05-06T10:10:38.815Z,1011.08
2023-05-06T10:11:38.797Z,1011.04
2023-05-06T10:12:38.814Z,1011.08
2023-05-06T10:13:38.766Z,1011.07
2023-05-06T10:14:38.759Z,1011.04
2023-05-06T10:15:38.757Z,1011.03
2023-05-06T10:16:38.747Z,1011.00
2023-05-06T10:17:38.739Z,1011.05
2023-05-06T10:18:38.714Z,1011.05
2023-05-06T10:19:38.702Z,1011.07
2023-05-06T10:20:38.693Z,1011.02
2023-05-06T10:21:38.774Z,1011.00
2023-05-06T10:22:38.664Z,1011.01
2023-05-06T10:23:38.656Z,1010.99
2023-05-06T10:24:38.639Z,1010.96
2023-05-06T10:25:38.671Z,1010.96
2023-05-06T10:26:38.616Z,1010.99
2023-05-06T10:27:38.611Z,1010.98
2023-05-06T10:28:38.598Z,1010.89
2023-05-06T10:29:38.610Z,1010.97
2023-05-06T10:30:38.573Z,1010.95
2023-05-06T10:31:38.655Z,1010.96
2023-05-06T10:32:38.622Z,1010.95
2023-05-06T10:33:40.911Z,1010.92
2023-05-06T10:34:38.528Z,1010.86
2023-05-06T10:35:38.542Z,1010.90
2023-05-06T10:36:38.507Z,1011.05
2023-05-06T10:37:38.545Z,1010.84
2023-05-06T10:38:38.488Z,1010.89
2023-05-06T10:39:40.822Z,1010.92
2023-05-06T10:40:38.485Z,1011.01
2023-05-06T10:41:38.454Z,1010.95
2023-05-06T10:42:38.444Z,1010.89
2023-05-06T10:43:38.439Z,1010.87
2023-05-06T10:44:38.409Z,1010.86
2023-05-06T10:45:38.436Z,1010.84
2023-05-06T10:46:38.390Z,1010.89
2023-05-06T10:47:38.443Z,1010.88
2023-05-06T10:48:38.380Z,1010.78
2023-05-06T10:49:38.355Z,1010.82
2023-05-06T10:50:38.354Z,1010.82
2023-05-06T10:51:38.340Z,1010.86
2023-05-06T10:52:38.332Z,1010.73
2023-05-06T10:53:38.494Z,1010.80
2023-05-06T10:54:38.301Z,1010.74
2023-05-06T10:55:38.291Z,1010.75
2023-05-06T10:56:38.330Z,1010.66
2023-05-06T10:57:38.278Z,1010.72
2023-05-06T10:58:38.250Z,1010.71
2023-05-06T10:59:38.259Z,1010.71
2023-05-06T11:00:38.240Z,1010.74
2023-05-06T11:01:38.291Z,1010.75
2023-05-06T11:02:38.277Z,1010.71
2023-05-06T11:03:38.213Z,1010.70
2023-05-06T11:04:38.198Z,1010.71
2023-05-06T11:05:38.192Z,1010.66
2023-05-06T11:06:38.174Z,1010.76
2023-05-06T11:07:38.163Z,1010.67
2023-05-06T11:08:38.150Z,1010.65
2023-05-06T11:09:38.180Z,1010.69
2023-05-06T11:10:38.139Z,1010.65
2023-05-06T11:11:38.110Z,1010.66
2023-05-06T11:12:38.130Z,1010.65
2023-05-06T11:13:38.090Z,1010.69
2023-05-06T11:14:38.105Z,1010.66
2023-05-06T11:15:38.096Z,1010.67
2023-05-06T11:16:38.808Z,1010.74
2023-05-06T11:17:38.164Z,1010.72
2023-05-06T11:18:38.047Z,1010.62
2023-05-06T11:19:38.029Z,1010.65
2023-05-06T11:20:38.041Z,1010.63
2023-05-06T11:21:38.010Z,1010.74
2023-05-06T11:22:37.993Z,1010.70
2023-05-06T11:23:37.990Z,1010.64
2023-05-06T11:24:37.979Z,1010.69
2023-05-06T11:25:38.097Z,1010.68
2023-05-06T11:26:37.952Z,1010.71
2023-05-06T11:27:37.945Z,1010.62
2023-05-06T11:28:37.948Z,1010.67
2023-05-06T11:29:37.934Z,1010.66
2023-05-06T11:30:37.902Z,1010.73
2023-05-06T11:31:37.940Z,1010.64
2023-05-06T11:32:37.923Z,1010.60
2023-05-06T11:33:37.882Z,1010.68
2023-05-06T11:34:37.865Z,1010.63
2023-05-06T11:35:37.851Z,1010.65
2023-05-06T11:36:37.864Z,1010.61
2023-05-06T11:37:37.872Z,1010.65
2023-05-06T11:38:37.815Z,1010.54
2023-05-06T11:39:40.917Z,1010.59
2023-05-06T11:40:37.789Z,1010.64
2023-05-06T11:41:37.901Z,1010.57
2023-05-06T11:42:37.782Z,1010.61
2023-05-06T11:43:37.758Z,1010.60
2023-05-06T11:44:37.746Z,1010.60
2023-05-06T11:45:37.736Z,1010.52
2023-05-06T11:46:37.772Z,1010.55
2023-05-06T11:47:37.804Z,1010.63
2023-05-06T11:48:37.699Z,1010.66
2023-05-06T11:49:37.702Z,1010.67
2023-05-06T11:50:37.682Z,1010.58
2023-05-06T11:51:37.670Z,1010.58
2023-05-06T11:52:37.665Z,1010.64
2023-05-06T11:53:37.656Z,1010.71
2023-05-06T11:54:37.645Z,1010.63
2023-05-06T11:55:37.633Z,1010.68
2023-05-06T11:56:37.632Z,1010.55
2023-05-06T11:57:37.713Z,1010.51
2023-05-06T11:58:37.595Z,1010.54
2023-05-06T11:59:37.595Z,1010.61
2023-05-06T12:00:37.581Z,1010.63
2023-05-06T12:01:37.559Z,1010.50
2023-05-06T12:02:37.644Z,1010.48
2023-05-06T12:03:37.806Z,1010.49
2023-05-06T12:04:37.584Z,1010.46
2023-05-06T12:05:37.512Z,1010.47